createdAt,value
2023-01-31T00:00:40.789Z,2.18
2023-01-31T00:03:30.905Z,2.19
2023-01-31T00:06:21.391Z,2.16
2023-01-31T00:08:59.624Z,2.13
2023-01-31T00:11:37.532Z,2.09
2023-01-31T00:14:20.035Z,2.05
2023-01-31T00:16:56.458Z,1.99
2023-01-31T00:19:32.749Z,1.94
2023-01-31T00:22:09.135Z,1.92
2023-01-31T00:24:45.422Z,1.89
2023-01-31T00:27:21.604Z,1.87
2023-01-31T00:29:58.291Z,1.86
2023-01-31T00:32:34.963Z,1.87
2023-01-31T00:35:13.232Z,1.86
2023-01-31T00:37:52.651Z,1.86
2023-01-31T00:40:29.014Z,1.85
2023-01-31T00:43:05.282Z,1.84
2023-01-31T00:45:41.987Z,1.83
2023-01-31T00:48:18.548Z,1.84
2023-01-31T00:50:55.296Z,1.83
2023-01-31T00:53:31.899Z,1.83
2023-01-31T00:56:13.625Z,1.82
2023-01-31T00:58:50.521Z,1.82
2023-01-31T01:01:30.133Z,1.81
2023-01-31T01:04:07.615Z,1.81
2023-01-31T01:06:48.151Z,1.80
2023-01-31T01:09:27.673Z,1.80
2023-01-31T01:12:04.071Z,1.81
2023-01-31T01:14:40.609Z,1.80
2023-01-31T01:17:16.822Z,1.81
2023-01-31T01:19:53.229Z,1.82
2023-01-31T01:22:29.545Z,1.83
2023-01-31T01:25:09.094Z,1.82
2023-01-31T01:27:45.919Z,1.81
2023-01-31T01:30:23.645Z,1.79
2023-01-31T01:33:02.225Z,1.79
2023-01-31T01:35:38.671Z,1.79
2023-01-31T01:38:15.068Z,1.78
2023-01-31T01:40:51.538Z,1.78
2023-01-31T01:43:46.932Z,1.76
2023-01-31T01:46:30.548Z,1.73
2023-01-31T01:49:20.240Z,1.70
2023-01-31T01:52:01.640Z,1.68
2023-01-31T01:54:47.154Z,1.66
2023-01-31T01:57:34.049Z,1.63
2023-01-31T02:00:21.145Z,1.63
2023-01-31T02:03:04.475Z,1.63
2023-01-31T02:05:46.839Z,1.62
2023-01-31T02:08:27.073Z,1.63
2023-01-31T02:11:11.205Z,1.64
2023-01-31T02:13:49.186Z,1.63
2023-01-31T02:16:25.735Z,1.66
2023-01-31T02:19:03.027Z,1.67
2023-01-31T02:22:23.020Z,1.68
2023-01-31T02:26:10.777Z,1.73
2023-01-31T02:29:44.827Z,1.77
2023-01-31T02:32:59.683Z,1.82
2023-01-31T02:35:57.631Z,1.87
2023-01-31T02:38:58.964Z,1.91
2023-01-31T02:41:45.465Z,1.96
2023-01-31T02:44:50.788Z,1.98
2023-01-31T02:47:56.018Z,2.02
2023-01-31T02:50:40.597Z,2.06
2023-01-31T02:53:26.540Z,2.08
2023-01-31T02:56:18.333Z,2.11
2023-01-31T02:59:03.538Z,2.12
2023-01-31T03:01:46.609Z,2.15
2023-01-31T03:04:23.235Z,2.16
2023-01-31T03:07:09.341Z,2.19
2023-01-31T03:10:03.790Z,2.20
2023-01-31T03:12:56.177Z,2.21
2023-01-31T03:16:12.581Z,2.23
2023-01-31T03:19:02.829Z,2.23
2023-01-31T03:21:46.119Z,2.24
2023-01-31T03:24:26.608Z,2.26
2023-01-31T03:27:05.892Z,2.26
2023-01-31T03:29:43.768Z,2.27
2023-01-31T03:32:29.755Z,2.29
2023-01-31T03:35:08.249Z,2.28
2023-01-31T03:37:55.385Z,2.29
2023-01-31T03:40:38.948Z,2.30
2023-01-31T03:43:27.381Z,2.33
2023-01-31T03:46:16.961Z,2.34
2023-01-31T03:48:58.417Z,2.36
2023-01-31T03:51:43.151Z,2.37
2023-01-31T03:54:27.213Z,2.38
2023-01-31T03:57:15.587Z,2.39
2023-01-31T03:59:58.494Z,2.40
2023-01-31T04:02:41.460Z,2.40
2023-01-31T04:05:30.684Z,2.37
2023-01-31T04:08:07.813Z,2.35
2023-01-31T04:10:44.922Z,2.33
2023-01-31T04:13:22.132Z,2.32
2023-01-31T04:15:58.488Z,2.31
2023-01-31T04:18:37.453Z,2.29
2023-01-31T04:21:16.439Z,2.27
2023-01-31T04:23:52.719Z,2.27
2023-01-31T04:26:29.617Z,2.26
2023-01-31T04:29:06.378Z,2.25
2023-01-31T04:31:42.866Z,2.26
2023-01-31T04:34:19.731Z,2.24
2023-01-31T04:36:55.986Z,2.22
2023-01-31T04:39:32.195Z,2.17
2023-01-31T04:42:08.763Z,2.15
2023-01-31T04:44:45.093Z,2.11
2023-01-31T04:47:21.374Z,2.08
2023-01-31T04:49:57.882Z,2.05
2023-01-31T04:52:34.344Z,2.02
2023-01-31T04:55:12.824Z,1.99
2023-01-31T04:57:49.152Z,1.98
2023-01-31T05:00:27.905Z,1.97
2023-01-31T05:03:04.373Z,1.96
2023-01-31T05:05:41.224Z,1.96
2023-01-31T05:08:17.629Z,1.95
2023-01-31T05:11:02.898Z,1.95
2023-01-31T05:13:41.150Z,1.95
2023-01-31T05:16:17.708Z,1.93
2023-01-31T05:18:53.986Z,1.92
2023-01-31T05:21:30.453Z,1.93
2023-01-31T05:24:08.254Z,1.93
2023-01-31T05:26:44.518Z,1.93
2023-01-31T05:29:21.756Z,1.92
2023-01-31T05:32:02.314Z,1.91
2023-01-31T05:34:39.407Z,1.91
2023-01-31T05:37:15.721Z,1.91
2023-01-31T05:39:52.185Z,1.91
2023-01-31T05:42:28.615Z,1.91
2023-01-31T05:45:06.257Z,1.92
2023-01-31T05:47:42.729Z,1.93
2023-01-31T05:50:19.938Z,1.94
2023-01-31T05:53:00.934Z,1.94
2023-01-31T05:55:37.439Z,1.96
2023-01-31T05:58:13.713Z,1.99
2023-01-31T06:00:49.966Z,2.00
2023-01-31T06:03:26.354Z,2.00
2023-01-31T06:06:04.133Z,2.00
2023-01-31T06:08:42.043Z,2.01
2023-01-31T06:11:18.805Z,2.02
2023-01-31T06:13:58.574Z,2.03
2023-01-31T06:16:35.061Z,2.04
2023-01-31T06:19:11.894Z,2.05
2023-01-31T06:21:48.290Z,2.06
2023-01-31T06:24:25.565Z,2.07
2023-01-31T06:27:01.887Z,2.08
2023-01-31T06:29:38.136Z,2.10
2023-01-31T06:32:14.452Z,2.11
2023-01-31T06:34:50.773Z,2.12
2023-01-31T06:37:27.226Z,2.12
2023-01-31T06:40:03.554Z,2.12
2023-01-31T06:42:40.308Z,2.13
2023-01-31T06:45:17.772Z,2.14
2023-01-31T06:47:54.788Z,2.15
2023-01-31T06:50:31.649Z,2.16
2023-01-31T06:53:08.133Z,2.17
2023-01-31T06:55:44.628Z,2.17
2023-01-31T06:58:21.048Z,2.19
2023-01-31T07:00:57.336Z,2.20
2023-01-31T07:03:33.619Z,2.19
2023-01-31T07:06:12.053Z,2.19
2023-01-31T07:08:48.493Z,2.19
2023-01-31T07:11:24.828Z,2.20
2023-01-31T07:14:01.314Z,2.20
2023-01-31T07:16:38.290Z,2.20
2023-01-31T07:19:14.890Z,2.20
2023-01-31T07:21:51.317Z,2.22
2023-01-31T07:24:27.750Z,2.22
2023-01-31T07:27:04.035Z,2.22
2023-01-31T07:29:40.310Z,2.24
2023-01-31T07:32:16.906Z,2.24
2023-01-31T07:34:53.269Z,2.26
2023-01-31T07:37:29.991Z,2.27
2023-01-31T07:40:07.960Z,2.29
2023-01-31T07:42:44.720Z,2.33
2023-01-31T07:45:23.639Z,2.37
2023-01-31T07:48:10.427Z,2.40
2023-01-31T07:50:46.705Z,2.43
2023-01-31T07:53:23.182Z,2.47
2023-01-31T07:56:08.675Z,2.50
2023-01-31T07:58:47.370Z,2.54
2023-01-31T08:01:45.121Z,2.57
2023-01-31T08:04:22.952Z,2.59
2023-01-31T08:07:03.061Z,2.60
2023-01-31T08:09:40.274Z,2.64
2023-01-31T08:12:16.631Z,2.67
2023-01-31T08:14:52.927Z,2.73
2023-01-31T08:17:29.563Z,2.77
2023-01-31T08:20:06.657Z,2.78
2023-01-31T08:22:43.018Z,2.81
2023-01-31T08:25:20.727Z,2.83
2023-01-31T08:27:57.937Z,2.89
2023-01-31T08:30:34.611Z,2.95
2023-01-31T08:33:13.096Z,2.99
2023-01-31T08:35:49.554Z,3.04
2023-01-31T08:38:26.478Z,3.07
2023-01-31T08:41:04.535Z,3.09
2023-01-31T08:43:55.051Z,3.09
2023-01-31T08:46:37.811Z,3.08
2023-01-31T08:49:14.326Z,3.06
2023-01-31T08:51:51.329Z,3.07
2023-01-31T08:54:27.861Z,3.10
2023-01-31T08:57:04.319Z,3.12
2023-01-31T08:59:40.662Z,3.14
2023-01-31T09:02:17.481Z,3.18
2023-01-31T09:04:53.831Z,3.20
2023-01-31T09:07:31.266Z,3.21
2023-01-31T09:10:09.164Z,3.21
2023-01-31T09:12:45.692Z,3.25
2023-01-31T09:15:22.623Z,3.29
2023-01-31T09:17:59.353Z,3.34
2023-01-31T09:20:35.811Z,3.38
2023-01-31T09:23:13.638Z,3.35
2023-01-31T09:25:56.908Z,3.35
2023-01-31T09:28:34.185Z,3.33
2023-01-31T09:31:13.667Z,3.31
2023-01-31T09:33:52.679Z,3.30
2023-01-31T09:36:30.226Z,3.31
2023-01-31T09:39:07.046Z,3.34
2023-01-31T09:41:51.993Z,3.37
2023-01-31T09:44:33.676Z,3.42
2023-01-31T09:47:22.412Z,3.49
2023-01-31T09:50:05.615Z,3.48
2023-01-31T09:52:42.828Z,3.50
2023-01-31T09:55:32.015Z,3.55
2023-01-31T09:58:24.557Z,3.57
2023-01-31T10:01:15.098Z,3.58
2023-01-31T10:04:41.086Z,3.63
2023-01-31T10:07:28.160Z,3.64
2023-01-31T10:10:19.387Z,3.68
2023-01-31T10:13:01.499Z,3.72
2023-01-31T10:15:45.079Z,3.74
2023-01-31T10:18:27.275Z,3.74
2023-01-31T10:21:07.728Z,3.76
2023-01-31T10:23:53.717Z,3.82
2023-01-31T10:26:36.471Z,3.78
2023-01-31T10:29:27.379Z,3.71
2023-01-31T10:32:13.663Z,3.60
2023-01-31T10:34:58.423Z,3.50
2023-01-31T10:37:45.468Z,3.42
2023-01-31T10:40:30.130Z,3.36
2023-01-31T10:43:18.283Z,3.37
2023-01-31T10:45:54.680Z,3.40
2023-01-31T10:48:33.406Z,3.36
2023-01-31T10:51:35.627Z,3.35
2023-01-31T10:54:36.150Z,3.34
2023-01-31T10:57:12.730Z,3.34
2023-01-31T10:59:51.674Z,3.35
2023-01-31T11:02:31.222Z,3.37
2023-01-31T11:05:15.674Z,3.41
2023-01-31T11:07:52.156Z,3.42
2023-01-31T11:10:33.395Z,3.43
2023-01-31T11:13:20.680Z,3.47
2023-01-31T11:15:58.902Z,3.45
2023-01-31T11:18:45.255Z,3.42
2023-01-31T11:21:31.378Z,3.40
2023-01-31T11:24:19.387Z,3.40
2023-01-31T11:27:00.281Z,3.37
2023-01-31T11:29:43.534Z,3.34
2023-01-31T11:32:27.663Z,3.36
2023-01-31T11:35:07.870Z,3.34
2023-01-31T11:37:57.056Z,3.30
2023-01-31T11:40:40.878Z,3.26
2023-01-31T11:43:33.421Z,3.29
2023-01-31T11:46:12.358Z,3.29
2023-01-31T11:48:50.286Z,3.29
2023-01-31T11:51:34.360Z,3.27
2023-01-31T11:54:20.246Z,3.24
2023-01-31T11:56:57.431Z,3.19
2023-01-31T11:59:37.973Z,3.10
2023-01-31T12:02:33.327Z,3.10
2023-01-31T12:05:19.787Z,3.13
2023-01-31T12:07:57.368Z,3.15
2023-01-31T12:10:43.685Z,3.18
2023-01-31T12:13:23.717Z,3.22
2023-01-31T12:16:06.688Z,3.26
2023-01-31T12:19:07.674Z,3.26
2023-01-31T12:22:03.121Z,3.25
2023-01-31T12:25:01.415Z,3.23
2023-01-31T12:28:07.347Z,3.25
2023-01-31T12:31:34.857Z,3.30
2023-01-31T12:34:50.400Z,3.30
2023-01-31T12:37:55.285Z,3.25
2023-01-31T12:40:45.625Z,3.26
2023-01-31T12:43:58.243Z,3.27
2023-01-31T12:47:08.653Z,3.27
2023-01-31T12:50:32.079Z,3.26
2023-01-31T12:53:43.346Z,3.26
2023-01-31T12:56:55.988Z,3.24
2023-01-31T12:59:52.780Z,3.25
2023-01-31T13:02:47.219Z,3.27
2023-01-31T13:05:39.998Z,3.29
2023-01-31T13:08:22.799Z,3.30
2023-01-31T13:11:07.531Z,3.35
2023-01-31T13:13:51.804Z,3.42
2023-01-31T13:16:35.616Z,3.53
2023-01-31T13:19:21.082Z,3.65
2023-01-31T13:22:03.307Z,3.73
2023-01-31T13:24:46.260Z,3.78
2023-01-31T13:27:34.313Z,3.77
2023-01-31T13:30:25.803Z,3.79
2023-01-31T13:33:08.802Z,3.81
2023-01-31T13:35:50.017Z,3.77
2023-01-31T13:38:35.429Z,3.75
2023-01-31T13:41:19.458Z,3.76
2023-01-31T13:43:56.311Z,3.76
2023-01-31T13:46:52.500Z,3.75
2023-01-31T13:49:37.449Z,3.73
2023-01-31T13:52:23.881Z,3.69
2023-01-31T13:55:05.299Z,3.61
2023-01-31T13:57:54.126Z,3.50
2023-01-31T14:00:44.368Z,3.42
2023-01-31T14:03:23.691Z,3.39
2023-01-31T14:06:03.923Z,3.35
2023-01-31T14:09:02.217Z,3.29
2023-01-31T14:11:47.941Z,3.21
2023-01-31T14:14:46.162Z,3.17
2023-01-31T14:18:03.670Z,3.16
2023-01-31T14:20:40.218Z,3.11
2023-01-31T14:23:48.966Z,3.07
2023-01-31T14:26:59.413Z,3.00
2023-01-31T14:29:43.093Z,2.89
2023-01-31T14:32:35.698Z,2.85
2023-01-31T14:35:46.856Z,2.78
2023-01-31T14:38:41.935Z,2.70
2023-01-31T14:41:36.664Z,2.64
2023-01-31T14:44:34.373Z,2.61
2023-01-31T14:47:35.620Z,2.61
2023-01-31T14:50:56.418Z,2.61
2023-01-31T14:54:06.990Z,2.63
2023-01-31T14:57:21.936Z,2.61
2023-01-31T15:00:05.984Z,2.59
2023-01-31T15:03:02.006Z,2.58
2023-01-31T15:05:52.164Z,2.57
2023-01-31T15:09:31.695Z,2.56
2023-01-31T15:12:45.383Z,2.53
2023-01-31T15:15:37.620Z,2.49
2023-01-31T15:18:26.550Z,2.46
2023-01-31T15:21:08.837Z,2.45
2023-01-31T15:23:47.815Z,2.44
2023-01-31T15:26:28.248Z,2.42
2023-01-31T15:29:05.942Z,2.41
2023-01-31T15:31:48.564Z,2.38
2023-01-31T15:34:33.131Z,2.37
2023-01-31T15:37:23.480Z,2.35
2023-01-31T15:40:07.189Z,2.35
2023-01-31T15:42:43.691Z,2.34
2023-01-31T15:45:26.823Z,2.31
2023-01-31T15:48:12.931Z,2.26
2023-01-31T15:50:58.798Z,2.25
2023-01-31T15:53:35.574Z,2.24
2023-01-31T15:56:22.704Z,2.20
2023-01-31T15:59:01.404Z,2.17
2023-01-31T16:01:37.981Z,2.13
2023-01-31T16:04:17.200Z,2.09
2023-01-31T16:06:53.869Z,2.06
2023-01-31T16:09:34.417Z,2.02
2023-01-31T16:12:13.401Z,1.98
2023-01-31T16:14:59.233Z,1.97
2023-01-31T16:17:36.534Z,1.94
2023-01-31T16:20:47.883Z,1.90
2023-01-31T16:23:41.623Z,1.87
2023-01-31T16:26:27.668Z,1.85
2023-01-31T16:29:14.905Z,1.81
2023-01-31T16:31:55.560Z,1.79
2023-01-31T16:34:36.891Z,1.77
2023-01-31T16:37:16.740Z,1.77
2023-01-31T16:40:00.491Z,1.74
2023-01-31T16:42:39.284Z,1.74
2023-01-31T16:45:37.041Z,1.71
2023-01-31T16:48:29.256Z,1.70
2023-01-31T16:51:52.111Z,1.69
2023-01-31T16:54:31.881Z,1.68
2023-01-31T16:57:38.961Z,1.69
2023-01-31T17:00:39.282Z,1.69
2023-01-31T17:03:22.677Z,1.65
2023-01-31T17:05:59.119Z,1.63
2023-01-31T17:08:46.331Z,1.62
2023-01-31T17:11:40.980Z,1.62
2023-01-31T17:14:18.891Z,1.62
2023-01-31T17:16:58.934Z,1.61
2023-01-31T17:19:35.441Z,1.62
2023-01-31T17:22:15.099Z,1.61
2023-01-31T17:24:51.891Z,1.59
2023-01-31T17:27:28.184Z,1.59
2023-01-31T17:30:05.060Z,1.61
2023-01-31T17:32:42.388Z,1.60
2023-01-31T17:35:28.279Z,1.62
2023-01-31T17:38:04.752Z,1.63
2023-01-31T17:40:43.636Z,1.63
2023-01-31T17:43:26.064Z,1.63
2023-01-31T17:46:02.656Z,1.64
2023-01-31T17:48:39.219Z,1.65
2023-01-31T17:51:16.120Z,1.65
2023-01-31T17:53:52.787Z,1.67
2023-01-31T17:56:29.237Z,1.68
2023-01-31T17:59:05.864Z,1.69
2023-01-31T18:01:43.501Z,1.70
2023-01-31T18:04:20.359Z,1.70
2023-01-31T18:06:57.226Z,1.68
2023-01-31T18:09:33.909Z,1.68
2023-01-31T18:12:11.321Z,1.68
2023-01-31T18:14:47.782Z,1.70
2023-01-31T18:17:24.252Z,1.70
2023-01-31T18:20:00.819Z,1.73
2023-01-31T18:22:38.473Z,1.75
2023-01-31T18:25:15.752Z,1.78
2023-01-31T18:27:52.088Z,1.78
2023-01-31T18:30:28.615Z,1.78
2023-01-31T18:33:05.413Z,1.79
2023-01-31T18:35:41.886Z,1.79
2023-01-31T18:38:18.354Z,1.81
2023-01-31T18:40:55.425Z,1.83
2023-01-31T18:43:33.937Z,1.85
2023-01-31T18:46:11.992Z,1.87
2023-01-31T18:48:48.711Z,1.88
2023-01-31T18:51:25.297Z,1.89
2023-01-31T18:54:01.692Z,1.89
2023-01-31T18:56:38.129Z,1.88
2023-01-31T18:59:15.074Z,1.88
2023-01-31T19:01:52.690Z,1.88
2023-01-31T19:04:29.779Z,1.88
2023-01-31T19:07:06.874Z,1.89
2023-01-31T19:09:43.741Z,1.88
2023-01-31T19:12:20.418Z,1.88
2023-01-31T19:14:57.703Z,1.89
2023-01-31T19:17:34.369Z,1.89
2023-01-31T19:20:16.047Z,1.89
2023-01-31T19:22:53.271Z,1.89
2023-01-31T19:25:30.281Z,1.87
2023-01-31T19:28:07.547Z,1.88
2023-01-31T19:30:44.209Z,1.87
2023-01-31T19:33:21.007Z,1.87
2023-01-31T19:35:57.911Z,1.88
2023-01-31T19:38:35.191Z,1.90
2023-01-31T19:41:14.971Z,1.90
2023-01-31T19:43:53.352Z,1.92
2023-01-31T19:46:33.855Z,1.92
2023-01-31T19:49:10.857Z,1.93
2023-01-31T19:51:47.877Z,1.94
2023-01-31T19:54:25.234Z,1.95
2023-01-31T19:57:03.413Z,1.97
2023-01-31T19:59:41.172Z,1.97
2023-01-31T20:02:18.540Z,1.97
2023-01-31T20:04:57.792Z,1.99
2023-01-31T20:07:37.274Z,2.00
2023-01-31T20:10:16.618Z,2.01
2023-01-31T20:12:53.288Z,2.02
2023-01-31T20:15:30.489Z,2.03
2023-01-31T20:18:07.596Z,2.04
2023-01-31T20:20:47.260Z,2.06
2023-01-31T20:23:25.267Z,2.07
2023-01-31T20:26:03.507Z,2.08
2023-01-31T20:28:41.125Z,2.11
2023-01-31T20:31:19.542Z,2.13
2023-01-31T20:33:58.595Z,2.13
2023-01-31T20:36:35.507Z,2.14
2023-01-31T20:39:13.506Z,2.17
2023-01-31T20:41:50.353Z,2.19
2023-01-31T20:44:27.911Z,2.21
2023-01-31T20:47:04.790Z,2.24
2023-01-31T20:49:41.632Z,2.25
2023-01-31T20:52:18.027Z,2.27
2023-01-31T20:54:54.657Z,2.30
2023-01-31T20:57:31.595Z,2.32
2023-01-31T21:00:10.419Z,2.34
2023-01-31T21:02:47.180Z,2.37
2023-01-31T21:05:24.337Z,2.37
2023-01-31T21:08:01.108Z,2.41
2023-01-31T21:10:37.577Z,2.42
2023-01-31T21:13:13.860Z,2.42
2023-01-31T21:15:56.099Z,2.43
2023-01-31T21:18:37.822Z,2.44
2023-01-31T21:21:23.610Z,2.46
2023-01-31T21:24:01.194Z,2.46
2023-01-31T21:26:37.949Z,2.48
2023-01-31T21:29:14.736Z,2.49
2023-01-31T21:31:51.750Z,2.49
2023-01-31T21:34:28.739Z,2.49
2023-01-31T21:37:05.404Z,2.50
2023-01-31T21:39:42.056Z,2.50
2023-01-31T21:42:19.663Z,2.51
2023-01-31T21:44:56.398Z,2.51
2023-01-31T21:47:33.927Z,2.51
2023-01-31T21:50:13.640Z,2.52
2023-01-31T21:52:50.578Z,2.52
2023-01-31T21:55:27.074Z,2.52
2023-01-31T21:58:03.738Z,2.51
2023-01-31T22:00:43.869Z,2.52
2023-01-31T22:03:21.225Z,2.53
2023-01-31T22:06:01.323Z,2.53
2023-01-31T22:08:38.373Z,2.55
2023-01-31T22:11:16.538Z,2.55
2023-01-31T22:13:56.224Z,2.54
2023-01-31T22:16:33.366Z,2.55
2023-01-31T22:19:11.287Z,2.54
2023-01-31T22:21:48.271Z,2.56
2023-01-31T22:24:25.033Z,2.57
2023-01-31T22:27:01.524Z,2.58
2023-01-31T22:29:38.145Z,2.58
2023-01-31T22:32:14.654Z,2.59
2023-01-31T22:34:50.943Z,2.60
2023-01-31T22:37:27.311Z,2.62
2023-01-31T22:40:03.760Z,2.63
2023-01-31T22:42:40.221Z,2.64
2023-01-31T22:45:17.752Z,2.65
2023-01-31T22:47:54.001Z,2.66
2023-01-31T22:50:30.645Z,2.68
2023-01-31T22:53:08.623Z,2.70
2023-01-31T22:55:46.273Z,2.72
2023-01-31T22:58:22.768Z,2.72
2023-01-31T23:00:59.186Z,2.72
2023-01-31T23:03:35.649Z,2.71
2023-01-31T23:06:13.995Z,2.68
2023-01-31T23:08:50.395Z,2.66
2023-01-31T23:11:27.765Z,2.64
2023-01-31T23:14:04.266Z,2.64
2023-01-31T23:16:59.693Z,2.63
2023-01-31T23:19:37.927Z,2.62
2023-01-31T23:22:15.128Z,2.60
2023-01-31T23:24:51.663Z,2.58
2023-01-31T23:27:28.248Z,2.56
2023-01-31T23:30:05.200Z,2.54
2023-01-31T23:32:43.141Z,2.49
2023-01-31T23:35:20.139Z,2.48
2023-01-31T23:37:57.379Z,2.45
2023-01-31T23:40:33.842Z,2.44
2023-01-31T23:43:10.827Z,2.43
2023-01-31T23:45:49.150Z,2.43
2023-01-31T23:48:25.703Z,2.44
2023-01-31T23:51:08.204Z,2.44
2023-01-31T23:53:44.677Z,2.44
2023-01-31T23:56:21.250Z,2.45
2023-01-31T23:58:57.717Z,2.45
